createdAt,value
2022-10-18T00:02:45.113Z,16.83
2022-10-18T00:05:30.659Z,18.00
2022-10-18T00:08:17.388Z,17.73
2022-10-18T00:11:03.947Z,16.98
2022-10-18T00:13:49.387Z,16.00
2022-10-18T00:16:34.712Z,16.17
2022-10-18T00:19:20.155Z,17.20
2022-10-18T00:22:05.537Z,15.80
2022-10-18T00:24:51.164Z,16.73
2022-10-18T00:27:36.527Z,17.88
2022-10-18T00:30:21.987Z,16.30
2022-10-18T00:33:07.218Z,15.43
2022-10-18T00:35:52.990Z,16.65
2022-10-18T00:38:39.218Z,16.00
2022-10-18T00:41:27.112Z,16.95
2022-10-18T00:44:12.410Z,16.75
2022-10-18T00:47:03.368Z,17.08
2022-10-18T00:49:53.670Z,16.75
2022-10-18T00:52:47.126Z,18.77
2022-10-18T00:55:34.060Z,16.98
2022-10-18T00:58:20.148Z,16.13
2022-10-18T01:01:06.122Z,16.88
2022-10-18T01:03:52.874Z,16.80
2022-10-18T01:06:50.683Z,15.02
2022-10-18T01:09:41.900Z,17.17
2022-10-18T01:12:51.866Z,16.50
2022-10-18T01:16:00.279Z,16.33
2022-10-18T01:19:02.678Z,17.08
2022-10-18T01:24:58.120Z,16.83
2022-10-18T01:27:55.451Z,15.55
2022-10-18T01:30:45.218Z,16.58
2022-10-18T01:33:38.274Z,16.73
2022-10-18T01:36:32.715Z,18.05
2022-10-18T01:39:29.490Z,19.40
2022-10-18T01:42:20.206Z,17.55
2022-10-18T01:45:08.043Z,18.35
2022-10-18T01:47:54.915Z,18.10
2022-10-18T01:50:40.566Z,18.65
2022-10-18T01:53:29.275Z,19.15
2022-10-18T01:56:39.630Z,17.98
2022-10-18T01:59:47.100Z,19.33
2022-10-18T02:02:41.283Z,17.67
2022-10-18T02:05:33.286Z,19.27
2022-10-18T02:08:27.971Z,17.55
2022-10-18T02:11:15.908Z,19.83
2022-10-18T02:14:08.288Z,18.15
2022-10-18T02:17:00.049Z,15.02
2022-10-18T02:19:51.979Z,16.42
2022-10-18T02:22:40.922Z,16.13
2022-10-18T02:25:30.242Z,16.13
2022-10-18T02:28:15.790Z,15.38
2022-10-18T02:31:10.842Z,16.80
2022-10-18T02:34:02.661Z,15.98
2022-10-18T02:36:58.061Z,17.05
2022-10-18T02:39:47.719Z,18.17
2022-10-18T02:42:38.672Z,17.35
2022-10-18T02:45:25.122Z,18.38
2022-10-18T02:48:10.555Z,18.25
2022-10-18T02:50:55.931Z,16.45
2022-10-18T02:53:41.556Z,16.52
2022-10-18T02:56:27.264Z,15.40
2022-10-18T02:59:13.004Z,16.60
2022-10-18T03:01:58.316Z,17.27
2022-10-18T03:04:43.847Z,15.98
2022-10-18T03:07:29.284Z,17.17
2022-10-18T03:10:15.184Z,16.25
2022-10-18T03:13:00.485Z,16.20
2022-10-18T03:15:47.046Z,16.73
2022-10-18T03:18:32.459Z,16.58
2022-10-18T03:21:17.836Z,17.58
2022-10-18T03:24:03.652Z,17.25
2022-10-18T03:26:49.336Z,16.52
2022-10-18T03:29:34.459Z,18.10
2022-10-18T03:32:20.044Z,16.60
2022-10-18T03:35:06.324Z,16.52
2022-10-18T03:37:51.587Z,17.52
2022-10-18T03:40:37.041Z,16.92
2022-10-18T03:43:22.656Z,16.75
2022-10-18T03:46:07.919Z,16.00
2022-10-18T03:48:53.233Z,17.95
2022-10-18T03:51:38.432Z,17.45
2022-10-18T03:54:23.913Z,17.80
2022-10-18T03:57:09.180Z,16.50
2022-10-18T03:59:54.719Z,17.63
2022-10-18T04:02:40.136Z,17.27
2022-10-18T04:05:28.024Z,16.35
2022-10-18T04:08:13.982Z,17.85
2022-10-18T04:10:59.617Z,18.95
2022-10-18T04:13:45.084Z,18.85
2022-10-18T04:16:30.543Z,19.20
2022-10-18T04:19:16.009Z,24.55
2022-10-18T04:22:01.593Z,22.70
2022-10-18T04:24:46.866Z,26.58
2022-10-18T04:27:32.558Z,24.05
2022-10-18T04:30:18.362Z,22.50
2022-10-18T04:33:04.126Z,23.92
2022-10-18T04:35:52.661Z,22.23
2022-10-18T04:38:38.031Z,22.75
2022-10-18T04:41:23.373Z,22.98
2022-10-18T04:44:08.972Z,22.63
2022-10-18T04:46:54.208Z,26.38
2022-10-18T04:49:39.742Z,25.25
2022-10-18T04:52:25.035Z,21.15
2022-10-18T04:55:10.640Z,20.40
2022-10-18T04:57:56.087Z,20.52
2022-10-18T05:00:42.253Z,18.13
2022-10-18T05:03:27.776Z,19.55
2022-10-18T05:06:14.414Z,20.00
2022-10-18T05:08:59.749Z,19.48
2022-10-18T05:11:45.210Z,19.90
2022-10-18T05:14:30.540Z,20.63
2022-10-18T05:17:16.163Z,19.95
2022-10-18T05:20:01.687Z,20.23
2022-10-18T05:22:47.376Z,23.42
2022-10-18T05:25:32.908Z,25.13
2022-10-18T05:28:38.843Z,27.33
2022-10-18T05:31:23.867Z,27.63
2022-10-18T05:34:09.749Z,26.10
2022-10-18T05:36:57.086Z,23.42
2022-10-18T05:39:42.988Z,24.08
2022-10-18T05:42:28.699Z,21.45
2022-10-18T05:45:14.770Z,21.15
2022-10-18T05:48:00.552Z,23.55
2022-10-18T05:50:46.070Z,22.20
2022-10-18T05:53:36.732Z,22.38
2022-10-18T05:56:23.901Z,21.73
2022-10-18T05:59:12.500Z,22.63
2022-10-18T06:01:58.052Z,22.02
2022-10-18T06:04:43.475Z,22.52
2022-10-18T06:07:28.928Z,22.92
2022-10-18T06:10:14.083Z,21.88
2022-10-18T06:12:59.537Z,21.02
2022-10-18T06:15:44.741Z,20.15
2022-10-18T06:18:30.211Z,21.30
2022-10-18T06:21:21.446Z,23.10
2022-10-18T06:24:12.976Z,21.08
2022-10-18T06:27:02.121Z,19.92
2022-10-18T06:29:48.181Z,21.23
2022-10-18T06:32:33.664Z,20.20
2022-10-18T06:35:20.577Z,20.52
2022-10-18T06:38:06.499Z,21.17
2022-10-18T06:40:52.090Z,20.95
2022-10-18T06:43:37.885Z,22.25
2022-10-18T06:46:23.989Z,22.52
2022-10-18T06:49:12.073Z,22.35
2022-10-18T06:51:59.555Z,23.95
2022-10-18T06:54:45.512Z,25.10
2022-10-18T06:57:31.701Z,26.20
2022-10-18T07:00:17.439Z,25.52
2022-10-18T07:03:02.859Z,26.35
2022-10-18T07:05:49.472Z,23.63
2022-10-18T07:08:35.421Z,25.15
2022-10-18T07:11:24.468Z,21.98
2022-10-18T07:14:14.000Z,21.67
2022-10-18T07:17:02.087Z,20.98
2022-10-18T07:19:47.296Z,20.70
2022-10-18T07:22:34.328Z,22.17
2022-10-18T07:25:20.418Z,22.13
2022-10-18T07:28:06.875Z,22.27
2022-10-18T07:30:53.631Z,24.95
2022-10-18T07:33:40.319Z,21.35
2022-10-18T07:36:26.091Z,21.15
2022-10-18T07:39:12.095Z,21.38
2022-10-18T07:41:59.035Z,20.98
2022-10-18T07:44:45.063Z,19.52
2022-10-18T07:47:32.826Z,19.67
2022-10-18T07:50:20.930Z,19.33
2022-10-18T07:53:06.607Z,18.65
2022-10-18T07:55:58.370Z,20.13
2022-10-18T07:58:46.125Z,19.97
2022-10-18T08:01:31.699Z,19.55
2022-10-18T08:04:17.089Z,20.20
2022-10-18T08:07:03.145Z,19.23
2022-10-18T08:09:48.891Z,18.33
2022-10-18T08:12:34.287Z,17.75
2022-10-18T08:15:21.866Z,18.33
2022-10-18T08:18:07.333Z,18.08
2022-10-18T08:20:52.817Z,21.15
2022-10-18T08:23:39.147Z,20.30
2022-10-18T08:26:24.838Z,20.73
2022-10-18T08:29:23.016Z,19.13
2022-10-18T08:32:10.220Z,18.13
2022-10-18T08:34:55.757Z,15.55
2022-10-18T08:37:41.269Z,19.00
2022-10-18T08:40:27.851Z,16.30
2022-10-18T08:43:26.115Z,18.73
2022-10-18T08:46:12.769Z,19.17
2022-10-18T08:48:59.327Z,16.23
2022-10-18T08:51:49.241Z,17.00
2022-10-18T08:54:44.302Z,13.75
2022-10-18T08:57:31.214Z,14.20
2022-10-18T09:00:29.262Z,12.40
2022-10-18T09:03:14.964Z,13.07
2022-10-18T09:06:31.454Z,12.93
2022-10-18T09:09:41.427Z,12.77
2022-10-18T09:13:01.255Z,9.50
2022-10-18T09:15:57.139Z,11.68
2022-10-18T09:19:03.708Z,11.35
2022-10-18T09:21:54.685Z,10.20
2022-10-18T09:24:41.779Z,10.07
2022-10-18T09:28:02.097Z,9.48
2022-10-18T09:30:59.466Z,8.82
2022-10-18T09:33:53.304Z,8.65
2022-10-18T09:36:39.838Z,7.40
2022-10-18T09:39:32.583Z,6.63
2022-10-18T09:42:28.270Z,5.07
2022-10-18T09:45:32.194Z,5.05
2022-10-18T09:48:28.034Z,4.53
2022-10-18T09:51:23.479Z,4.43
2022-10-18T09:54:34.043Z,4.60
2022-10-18T09:57:31.272Z,4.80
2022-10-18T10:00:24.330Z,3.85
2022-10-18T10:03:14.742Z,4.35
2022-10-18T10:06:23.903Z,4.55
2022-10-18T10:09:17.397Z,3.88
2022-10-18T10:12:03.230Z,4.30
2022-10-18T10:14:48.680Z,4.15
2022-10-18T10:17:34.967Z,3.10
2022-10-18T10:20:24.519Z,2.95
2022-10-18T10:23:22.974Z,3.50
2022-10-18T10:26:21.014Z,4.13
2022-10-18T10:29:44.462Z,2.92
2022-10-18T10:32:42.077Z,2.67
2022-10-18T10:35:56.365Z,3.80
2022-10-18T10:38:41.945Z,5.35
2022-10-18T10:41:27.772Z,4.07
2022-10-18T10:44:23.337Z,2.45
2022-10-18T10:47:09.261Z,2.70
2022-10-18T10:49:56.656Z,4.18
2022-10-18T10:52:47.353Z,4.07
2022-10-18T10:55:35.819Z,3.20
2022-10-18T10:58:22.698Z,2.55
2022-10-18T11:01:26.625Z,2.20
2022-10-18T11:04:28.613Z,2.00
2022-10-18T11:07:17.156Z,2.40
2022-10-18T11:10:10.800Z,2.78
2022-10-18T11:13:23.612Z,2.60
2022-10-18T11:16:25.997Z,2.40
2022-10-18T11:19:41.088Z,3.08
2022-10-18T11:22:31.700Z,3.17
2022-10-18T11:25:16.972Z,3.15
2022-10-18T11:28:35.897Z,2.90
2022-10-18T11:31:35.893Z,2.80
2022-10-18T11:34:29.048Z,3.63
2022-10-18T11:37:42.215Z,3.00
2022-10-18T11:40:30.888Z,3.65
2022-10-18T11:44:01.802Z,4.20
2022-10-18T11:47:17.019Z,2.90
2022-10-18T11:50:26.130Z,2.45
2022-10-18T11:53:31.223Z,3.40
2022-10-18T11:56:32.375Z,2.70
2022-10-18T11:59:37.962Z,2.85
2022-10-18T12:02:48.480Z,2.33
2022-10-18T12:05:38.067Z,2.30
2022-10-18T12:08:31.622Z,2.85
2022-10-18T12:11:36.524Z,2.78
2022-10-18T12:14:30.190Z,2.63
2022-10-18T12:17:46.181Z,3.28
2022-10-18T12:20:49.420Z,3.22
2022-10-18T12:23:45.650Z,2.90
2022-10-18T12:26:33.219Z,3.40
2022-10-18T12:29:30.591Z,3.60
2022-10-18T12:32:30.283Z,5.07
2022-10-18T12:35:17.931Z,7.72
2022-10-18T12:38:03.291Z,6.60
2022-10-18T12:40:52.544Z,2.92
2022-10-18T12:43:38.408Z,6.82
2022-10-18T12:46:23.837Z,3.33
2022-10-18T12:49:12.709Z,3.10
2022-10-18T12:52:01.717Z,4.13
2022-10-18T12:55:18.398Z,4.00
2022-10-18T12:58:15.477Z,5.38
2022-10-18T13:01:05.997Z,7.32
2022-10-18T13:03:54.962Z,7.22
2022-10-18T13:07:43.274Z,12.10
2022-10-18T13:10:34.170Z,9.02
2022-10-18T13:13:39.820Z,10.27
2022-10-18T13:16:29.766Z,5.22
2022-10-18T13:19:30.750Z,4.57
2022-10-18T13:22:22.320Z,3.97
2022-10-18T13:25:16.973Z,3.22
2022-10-18T13:28:21.439Z,2.80
2022-10-18T13:31:19.452Z,2.65
2022-10-18T13:34:35.325Z,3.72
2022-10-18T13:37:24.602Z,4.10
2022-10-18T13:40:36.751Z,2.97
2022-10-18T13:43:51.553Z,3.30
2022-10-18T13:46:37.773Z,4.25
2022-10-18T13:49:38.567Z,3.28
2022-10-18T13:52:43.015Z,4.03
2022-10-18T13:59:15.022Z,3.15
2022-10-18T14:05:38.785Z,4.07
2022-10-18T14:08:40.005Z,3.50
2022-10-18T14:11:46.246Z,3.30
2022-10-18T14:14:40.746Z,3.58
2022-10-18T14:17:46.334Z,4.50
2022-10-18T14:21:01.445Z,3.90
2022-10-18T14:23:52.285Z,3.80
2022-10-18T14:29:25.178Z,4.13
2022-10-18T14:32:25.259Z,3.83
2022-10-18T14:35:32.559Z,4.18
2022-10-18T14:38:22.830Z,4.53
2022-10-18T14:41:28.923Z,5.07
2022-10-18T14:44:34.652Z,8.48
2022-10-18T14:47:26.037Z,10.05
2022-10-18T14:50:32.351Z,13.68
2022-10-18T14:53:34.653Z,24.13
2022-10-18T14:56:27.864Z,25.35
2022-10-18T14:59:22.002Z,19.77
2022-10-18T15:02:27.759Z,14.38
2022-10-18T15:05:16.697Z,10.65
2022-10-18T15:08:02.851Z,19.80
2022-10-18T15:10:48.988Z,21.52
2022-10-18T15:13:37.215Z,18.88
2022-10-18T15:16:33.115Z,13.32
2022-10-18T15:19:22.240Z,10.57
2022-10-18T15:25:19.876Z,10.82
2022-10-18T15:28:29.680Z,10.10
2022-10-18T15:31:24.837Z,10.57
2022-10-18T15:34:34.621Z,10.07
2022-10-18T15:37:33.062Z,17.27
2022-10-18T15:40:36.284Z,37.63
2022-10-18T15:43:28.814Z,19.25
2022-10-18T15:46:32.286Z,17.10
2022-10-18T15:49:40.719Z,16.10
2022-10-18T15:52:38.179Z,15.50
2022-10-18T15:55:29.280Z,11.07
2022-10-18T15:58:30.066Z,28.95
2022-10-18T16:01:20.694Z,43.40
2022-10-18T16:04:13.936Z,36.47
2022-10-18T16:07:00.358Z,35.13
2022-10-18T16:09:45.745Z,58.28
2022-10-18T16:12:32.756Z,62.28
2022-10-18T16:15:20.344Z,112.68
2022-10-18T16:18:06.013Z,140.32
2022-10-18T16:20:52.195Z,253.70
2022-10-18T16:23:38.619Z,245.02
2022-10-18T16:26:26.272Z,250.48
2022-10-18T16:29:16.718Z,271.30
2022-10-18T16:32:04.540Z,242.38
2022-10-18T16:34:49.597Z,223.82
2022-10-18T16:37:35.526Z,211.32
2022-10-18T16:40:26.627Z,117.03
2022-10-18T16:43:12.171Z,101.50
2022-10-18T16:45:57.802Z,66.57
2022-10-18T16:48:44.727Z,48.80
2022-10-18T16:51:32.753Z,39.55
2022-10-18T16:54:19.243Z,43.72
2022-10-18T16:57:12.953Z,49.15
2022-10-18T16:59:58.938Z,45.63
2022-10-18T17:02:47.683Z,46.35
2022-10-18T17:05:34.900Z,56.38
2022-10-18T17:08:26.873Z,37.83
2022-10-18T17:11:23.613Z,31.52
2022-10-18T17:14:10.338Z,29.42
2022-10-18T17:16:57.512Z,37.30
2022-10-18T17:19:42.966Z,30.17
2022-10-18T17:22:28.531Z,36.38
2022-10-18T17:25:14.023Z,67.82
2022-10-18T17:27:59.433Z,105.55
2022-10-18T17:30:45.522Z,120.70
2022-10-18T17:33:31.020Z,112.05
2022-10-18T17:36:17.308Z,82.82
2022-10-18T17:39:04.028Z,67.88
2022-10-18T17:41:50.665Z,69.78
2022-10-18T17:44:36.564Z,85.28
2022-10-18T17:47:22.209Z,75.38
2022-10-18T17:50:08.381Z,69.30
2022-10-18T17:52:54.200Z,68.50
2022-10-18T17:55:40.491Z,65.05
2022-10-18T17:58:25.612Z,66.95
2022-10-18T18:01:20.735Z,71.03
2022-10-18T18:04:06.187Z,63.35
2022-10-18T18:06:53.006Z,60.08
2022-10-18T18:09:38.863Z,56.20
2022-10-18T18:12:24.625Z,54.00
2022-10-18T18:15:11.082Z,46.92
2022-10-18T18:17:57.956Z,53.67
2022-10-18T18:20:53.277Z,51.33
2022-10-18T18:23:41.816Z,47.10
2022-10-18T18:26:27.732Z,43.50
2022-10-18T18:29:14.451Z,40.28
2022-10-18T18:32:03.729Z,38.17
2022-10-18T18:34:50.044Z,40.13
2022-10-18T18:37:36.555Z,38.70
2022-10-18T18:40:23.983Z,36.95
2022-10-18T18:43:22.695Z,35.88
2022-10-18T18:46:11.239Z,35.28
2022-10-18T18:48:58.364Z,32.67
2022-10-18T18:51:44.292Z,32.28
2022-10-18T18:54:31.777Z,31.23
2022-10-18T18:57:17.758Z,34.15
2022-10-18T19:00:04.666Z,34.13
2022-10-18T19:02:51.989Z,40.25
2022-10-18T19:05:39.206Z,41.63
2022-10-18T19:08:26.504Z,42.88
2022-10-18T19:11:19.749Z,40.45
2022-10-18T19:14:09.925Z,41.00
2022-10-18T19:16:58.996Z,38.42
2022-10-18T19:19:44.655Z,38.85
2022-10-18T19:22:30.116Z,40.45
2022-10-18T19:25:15.898Z,38.20
2022-10-18T19:28:01.269Z,37.50
2022-10-18T19:30:50.080Z,39.67
2022-10-18T19:33:48.268Z,37.10
2022-10-18T19:36:36.970Z,38.72
2022-10-18T19:39:31.007Z,33.35
2022-10-18T19:42:19.217Z,22.17
2022-10-18T19:45:08.918Z,23.88
2022-10-18T19:47:54.572Z,28.27
2022-10-18T19:50:39.875Z,36.60
2022-10-18T19:53:25.892Z,34.85
2022-10-18T19:56:18.260Z,32.58
2022-10-18T19:59:05.925Z,25.38
2022-10-18T20:01:52.590Z,19.80
2022-10-18T20:04:38.627Z,11.48
2022-10-18T20:07:24.386Z,9.70
2022-10-18T20:10:10.598Z,9.85
2022-10-18T20:12:56.224Z,8.40
2022-10-18T20:15:41.957Z,9.00
2022-10-18T20:18:27.745Z,8.95
2022-10-18T20:21:16.461Z,8.65
2022-10-18T20:24:05.804Z,8.00
2022-10-18T20:29:45.777Z,7.93
2022-10-18T20:32:32.950Z,7.53
2022-10-18T20:35:18.029Z,6.75
2022-10-18T20:38:03.580Z,6.68
2022-10-18T20:40:48.838Z,5.95
2022-10-18T20:43:34.627Z,5.97
2022-10-18T20:46:20.902Z,6.00
2022-10-18T20:49:08.414Z,6.25
2022-10-18T20:51:53.930Z,6.65
2022-10-18T20:54:39.453Z,6.10
2022-10-18T20:57:24.553Z,6.15
2022-10-18T21:00:11.726Z,5.85
2022-10-18T21:02:58.502Z,6.00
2022-10-18T21:05:44.063Z,5.55
2022-10-18T21:08:29.456Z,5.75
2022-10-18T21:11:14.845Z,7.20
2022-10-18T21:14:02.747Z,8.30
2022-10-18T21:16:49.859Z,7.22
2022-10-18T21:19:35.270Z,6.05
2022-10-18T21:22:20.888Z,6.53
2022-10-18T21:25:08.089Z,6.85
2022-10-18T21:27:53.495Z,6.60
2022-10-18T21:30:39.158Z,6.05
2022-10-18T21:33:24.936Z,6.03
2022-10-18T21:36:10.766Z,6.15
2022-10-18T21:38:56.410Z,5.05
2022-10-18T21:41:42.925Z,5.25
2022-10-18T21:44:28.297Z,6.00
2022-10-18T21:47:15.348Z,6.05
2022-10-18T21:50:00.576Z,5.60
2022-10-18T21:52:46.221Z,5.63
2022-10-18T21:55:31.480Z,6.00
2022-10-18T21:58:17.092Z,11.23
2022-10-18T22:01:09.399Z,9.98
2022-10-18T22:03:56.991Z,10.23
2022-10-18T22:06:42.315Z,10.05
2022-10-18T22:09:27.988Z,10.55
2022-10-18T22:12:13.281Z,10.85
2022-10-18T22:14:58.615Z,14.35
2022-10-18T22:17:44.121Z,11.95
2022-10-18T22:20:29.387Z,12.60
2022-10-18T22:23:14.901Z,12.95
2022-10-18T22:26:05.527Z,11.05
2022-10-18T22:28:59.950Z,10.38
2022-10-18T22:31:50.921Z,10.70
2022-10-18T22:34:36.822Z,10.07
2022-10-18T22:37:22.347Z,10.38
2022-10-18T22:40:10.863Z,7.60
2022-10-18T22:42:56.328Z,7.13
2022-10-18T22:45:41.940Z,7.55
2022-10-18T22:48:27.894Z,6.75
2022-10-18T22:51:13.818Z,6.32
2022-10-18T22:53:59.469Z,7.20
2022-10-18T22:56:44.773Z,6.35
2022-10-18T22:59:30.184Z,6.75
2022-10-18T23:02:15.740Z,6.22
2022-10-18T23:05:00.960Z,6.10
2022-10-18T23:07:50.171Z,5.90
2022-10-18T23:10:40.753Z,6.40
2022-10-18T23:13:27.868Z,6.20
2022-10-18T23:16:13.417Z,6.65
2022-10-18T23:18:59.743Z,6.50
2022-10-18T23:21:45.372Z,5.60
2022-10-18T23:24:30.867Z,5.30
2022-10-18T23:27:16.153Z,5.10
2022-10-18T23:30:01.356Z,5.85
2022-10-18T23:32:46.662Z,5.15
2022-10-18T23:35:32.034Z,5.40
2022-10-18T23:38:18.041Z,5.30
2022-10-18T23:41:05.515Z,6.30
2022-10-18T23:43:51.511Z,5.35
2022-10-18T23:46:37.226Z,4.93
2022-10-18T23:49:22.743Z,5.03
2022-10-18T23:52:08.446Z,5.50
2022-10-18T23:54:54.131Z,5.15
2022-10-18T23:57:39.306Z,5.13
